sensor_id;sensor_type;location;lat;lon;timestamp;P1;durP1;ratioP1;P2;durP2;ratioP2
64653;SDS011;51065;48.884;12.598;2022-09-14T00:00:40;8.68;;;4.50;;
64653;SDS011;51065;48.884;12.598;2022-09-14T00:03:06;9.45;;;4.80;;
64653;SDS011;51065;48.884;12.598;2022-09-14T00:05:33;10.63;;;5.10;;
64653;SDS011;51065;48.884;12.598;2022-09-14T00:07:59;11.05;;;4.68;;
64653;SDS011;51065;48.884;12.598;2022-09-14T00:10:25;10.30;;;4.93;;
64653;SDS011;51065;48.884;12.598;2022-09-14T00:12:51;9.85;;;4.93;;
64653;SDS011;51065;48.884;12.598;2022-09-14T00:15:16;11.48;;;4.68;;
64653;SDS011;51065;48.884;12.598;2022-09-14T00:17:42;10.25;;;4.55;;
64653;SDS011;51065;48.884;12.598;2022-09-14T00:20:07;11.95;;;4.90;;
64653;SDS011;51065;48.884;12.598;2022-09-14T00:22:33;9.07;;;4.57;;
64653;SDS011;51065;48.884;12.598;2022-09-14T00:24:59;11.95;;;4.80;;
64653;SDS011;51065;48.884;12.598;2022-09-14T00:27:24;10.40;;;4.88;;
64653;SDS011;51065;48.884;12.598;2022-09-14T00:29:50;10.77;;;5.35;;
64653;SDS011;51065;48.884;12.598;2022-09-14T00:32:15;11.23;;;4.60;;
64653;SDS011;51065;48.884;12.598;2022-09-14T00:34:41;9.48;;;4.47;;
64653;SDS011;51065;48.884;12.598;2022-09-14T00:37:07;11.07;;;5.03;;
64653;SDS011;51065;48.884;12.598;2022-09-14T00:39:32;9.02;;;4.72;;
64653;SDS011;51065;48.884;12.598;2022-09-14T00:41:58;9.57;;;4.38;;
64653;SDS011;51065;48.884;12.598;2022-09-14T00:46:54;10.77;;;4.50;;
64653;SDS011;51065;48.884;12.598;2022-09-14T00:49:28;10.63;;;4.75;;
64653;SDS011;51065;48.884;12.598;2022-09-14T00:52:08;10.25;;;4.88;;
64653;SDS011;51065;48.884;12.598;2022-09-14T00:55:03;10.57;;;4.85;;
64653;SDS011;51065;48.884;12.598;2022-09-14T00:57:34;11.45;;;4.93;;
64653;SDS011;51065;48.884;12.598;2022-09-14T01:00:15;10.75;;;4.97;;
64653;SDS011;51065;48.884;12.598;2022-09-14T01:02:43;9.87;;;4.63;;
64653;SDS011;51065;48.884;12.598;2022-09-14T01:05:09;11.98;;;4.75;;
64653;SDS011;51065;48.884;12.598;2022-09-14T01:12:48;12.68;;;5.45;;
64653;SDS011;51065;48.884;12.598;2022-09-14T01:18:28;11.32;;;5.05;;
64653;SDS011;51065;48.884;12.598;2022-09-14T01:21:09;12.20;;;5.28;;
64653;SDS011;51065;48.884;12.598;2022-09-14T01:29:13;11.23;;;5.13;;
64653;SDS011;51065;48.884;12.598;2022-09-14T01:31:51;13.82;;;4.88;;
64653;SDS011;51065;48.884;12.598;2022-09-14T01:37:13;10.35;;;4.35;;
64653;SDS011;51065;48.884;12.598;2022-09-14T01:39:43;9.85;;;4.53;;
64653;SDS011;51065;48.884;12.598;2022-09-14T01:42:12;10.32;;;5.03;;
64653;SDS011;51065;48.884;12.598;2022-09-14T01:44:42;12.20;;;5.18;;
64653;SDS011;51065;48.884;12.598;2022-09-14T01:47:15;11.93;;;5.15;;
64653;SDS011;51065;48.884;12.598;2022-09-14T01:49:48;8.77;;;4.60;;
64653;SDS011;51065;48.884;12.598;2022-09-14T01:52:26;13.68;;;4.95;;
64653;SDS011;51065;48.884;12.598;2022-09-14T01:55:09;8.77;;;4.50;;
64653;SDS011;51065;48.884;12.598;2022-09-14T01:58:01;10.88;;;4.53;;
64653;SDS011;51065;48.884;12.598;2022-09-14T02:00:51;10.35;;;4.47;;
64653;SDS011;51065;48.884;12.598;2022-09-14T02:03:21;9.85;;;4.63;;
64653;SDS011;51065;48.884;12.598;2022-09-14T02:08:26;12.48;;;4.93;;
64653;SDS011;51065;48.884;12.598;2022-09-14T02:10:53;8.30;;;4.32;;
64653;SDS011;51065;48.884;12.598;2022-09-14T02:13:20;10.55;;;5.18;;
64653;SDS011;51065;48.884;12.598;2022-09-14T02:15:46;11.45;;;5.00;;
64653;SDS011;51065;48.884;12.598;2022-09-14T02:18:12;11.93;;;5.00;;
64653;SDS011;51065;48.884;12.598;2022-09-14T02:23:12;11.43;;;4.93;;
64653;SDS011;51065;48.884;12.598;2022-09-14T02:25:38;10.45;;;4.88;;
64653;SDS011;51065;48.884;12.598;2022-09-14T02:28:06;9.52;;;4.90;;
64653;SDS011;51065;48.884;12.598;2022-09-14T02:30:45;10.50;;;4.68;;
64653;SDS011;51065;48.884;12.598;2022-09-14T02:33:36;9.70;;;4.45;;
64653;SDS011;51065;48.884;12.598;2022-09-14T02:36:15;13.13;;;5.05;;
64653;SDS011;51065;48.884;12.598;2022-09-14T02:38:55;9.80;;;5.00;;
64653;SDS011;51065;48.884;12.598;2022-09-14T02:41:36;10.38;;;4.55;;
64653;SDS011;51065;48.884;12.598;2022-09-14T02:44:32;13.60;;;6.10;;
64653;SDS011;51065;48.884;12.598;2022-09-14T02:49:49;12.77;;;5.03;;
64653;SDS011;51065;48.884;12.598;2022-09-14T02:55:04;12.35;;;5.88;;
64653;SDS011;51065;48.884;12.598;2022-09-14T02:57:39;15.18;;;5.93;;
64653;SDS011;51065;48.884;12.598;2022-09-14T03:00:30;12.80;;;6.03;;
64653;SDS011;51065;48.884;12.598;2022-09-14T03:02:57;13.88;;;6.15;;
64653;SDS011;51065;48.884;12.598;2022-09-14T03:05:23;12.20;;;5.68;;
64653;SDS011;51065;48.884;12.598;2022-09-14T03:07:49;10.02;;;5.43;;
64653;SDS011;51065;48.884;12.598;2022-09-14T03:10:14;11.65;;;5.53;;
64653;SDS011;51065;48.884;12.598;2022-09-14T03:12:40;13.27;;;5.30;;
64653;SDS011;51065;48.884;12.598;2022-09-14T03:15:06;11.80;;;5.00;;
64653;SDS011;51065;48.884;12.598;2022-09-14T03:17:32;11.38;;;5.55;;
64653;SDS011;51065;48.884;12.598;2022-09-14T03:19:57;12.43;;;5.38;;
64653;SDS011;51065;48.884;12.598;2022-09-14T03:22:23;10.38;;;4.80;;
64653;SDS011;51065;48.884;12.598;2022-09-14T03:24:48;9.43;;;4.75;;
64653;SDS011;51065;48.884;12.598;2022-09-14T03:27:14;9.75;;;4.50;;
64653;SDS011;51065;48.884;12.598;2022-09-14T03:29:40;10.25;;;4.72;;
64653;SDS011;51065;48.884;12.598;2022-09-14T03:32:05;10.38;;;4.63;;
64653;SDS011;51065;48.884;12.598;2022-09-14T03:34:31;12.20;;;5.47;;
64653;SDS011;51065;48.884;12.598;2022-09-14T03:36:56;11.90;;;5.30;;
64653;SDS011;51065;48.884;12.598;2022-09-14T03:39:22;11.95;;;5.18;;
64653;SDS011;51065;48.884;12.598;2022-09-14T03:41:48;10.88;;;5.63;;
64653;SDS011;51065;48.884;12.598;2022-09-14T03:44:13;11.00;;;4.90;;
64653;SDS011;51065;48.884;12.598;2022-09-14T03:46:39;10.50;;;4.60;;
64653;SDS011;51065;48.884;12.598;2022-09-14T03:49:05;11.77;;;5.43;;
64653;SDS011;51065;48.884;12.598;2022-09-14T03:51:32;10.98;;;5.15;;
64653;SDS011;51065;48.884;12.598;2022-09-14T03:53:58;11.85;;;5.80;;
64653;SDS011;51065;48.884;12.598;2022-09-14T03:56:24;11.32;;;5.03;;
64653;SDS011;51065;48.884;12.598;2022-09-14T03:58:50;10.63;;;5.25;;
64653;SDS011;51065;48.884;12.598;2022-09-14T04:01:17;10.65;;;5.30;;
64653;SDS011;51065;48.884;12.598;2022-09-14T04:03:45;11.82;;;5.32;;
64653;SDS011;51065;48.884;12.598;2022-09-14T04:06:11;10.73;;;5.25;;
64653;SDS011;51065;48.884;12.598;2022-09-14T04:08:38;10.82;;;5.03;;
64653;SDS011;51065;48.884;12.598;2022-09-14T04:11:06;10.95;;;5.38;;
64653;SDS011;51065;48.884;12.598;2022-09-14T04:13:33;11.55;;;5.70;;
64653;SDS011;51065;48.884;12.598;2022-09-14T04:15:59;12.80;;;6.18;;
64653;SDS011;51065;48.884;12.598;2022-09-14T04:18:25;13.07;;;5.03;;
64653;SDS011;51065;48.884;12.598;2022-09-14T04:20:58;10.32;;;4.88;;
64653;SDS011;51065;48.884;12.598;2022-09-14T04:23:25;9.88;;;4.93;;
64653;SDS011;51065;48.884;12.598;2022-09-14T04:25:51;12.75;;;5.47;;
64653;SDS011;51065;48.884;12.598;2022-09-14T04:28:18;12.70;;;6.00;;
64653;SDS011;51065;48.884;12.598;2022-09-14T04:30:53;12.10;;;5.97;;
64653;SDS011;51065;48.884;12.598;2022-09-14T04:33:19;14.60;;;5.82;;
64653;SDS011;51065;48.884;12.598;2022-09-14T04:35:45;13.13;;;5.97;;
64653;SDS011;51065;48.884;12.598;2022-09-14T04:38:10;12.25;;;5.75;;
64653;SDS011;51065;48.884;12.598;2022-09-14T04:40:39;11.50;;;5.65;;
64653;SDS011;51065;48.884;12.598;2022-09-14T04:43:05;13.93;;;5.70;;
64653;SDS011;51065;48.884;12.598;2022-09-14T04:45:30;12.30;;;6.38;;
64653;SDS011;51065;48.884;12.598;2022-09-14T04:47:56;15.32;;;6.20;;
64653;SDS011;51065;48.884;12.598;2022-09-14T04:50:21;11.10;;;5.47;;
64653;SDS011;51065;48.884;12.598;2022-09-14T04:52:47;16.70;;;7.00;;
64653;SDS011;51065;48.884;12.598;2022-09-14T04:55:13;15.23;;;5.85;;
64653;SDS011;51065;48.884;12.598;2022-09-14T04:57:38;13.77;;;6.18;;
64653;SDS011;51065;48.884;12.598;2022-09-14T05:00:04;15.52;;;6.55;;
64653;SDS011;51065;48.884;12.598;2022-09-14T05:02:30;15.55;;;6.43;;
64653;SDS011;51065;48.884;12.598;2022-09-14T05:04:56;14.05;;;6.70;;
64653;SDS011;51065;48.884;12.598;2022-09-14T05:07:22;12.68;;;6.30;;
64653;SDS011;51065;48.884;12.598;2022-09-14T05:09:48;12.27;;;5.75;;
64653;SDS011;51065;48.884;12.598;2022-09-14T05:12:14;11.75;;;5.68;;
64653;SDS011;51065;48.884;12.598;2022-09-14T05:14:39;12.82;;;5.78;;
64653;SDS011;51065;48.884;12.598;2022-09-14T05:17:05;13.57;;;5.63;;
64653;SDS011;51065;48.884;12.598;2022-09-14T05:19:30;12.38;;;5.70;;
64653;SDS011;51065;48.884;12.598;2022-09-14T05:21:56;11.80;;;5.72;;
64653;SDS011;51065;48.884;12.598;2022-09-14T05:24:22;12.75;;;5.60;;
64653;SDS011;51065;48.884;12.598;2022-09-14T05:26:50;16.63;;;5.78;;
64653;SDS011;51065;48.884;12.598;2022-09-14T05:29:16;12.07;;;5.68;;
64653;SDS011;51065;48.884;12.598;2022-09-14T05:31:42;12.05;;;5.68;;
64653;SDS011;51065;48.884;12.598;2022-09-14T05:34:09;11.48;;;5.47;;
64653;SDS011;51065;48.884;12.598;2022-09-14T05:36:35;11.85;;;5.50;;
64653;SDS011;51065;48.884;12.598;2022-09-14T05:39:02;14.27;;;6.00;;
64653;SDS011;51065;48.884;12.598;2022-09-14T05:41:28;11.98;;;5.63;;
64653;SDS011;51065;48.884;12.598;2022-09-14T05:43:53;15.73;;;6.00;;
64653;SDS011;51065;48.884;12.598;2022-09-14T05:46:19;12.93;;;5.80;;
64653;SDS011;51065;48.884;12.598;2022-09-14T05:48:45;12.40;;;5.85;;
64653;SDS011;51065;48.884;12.598;2022-09-14T05:51:12;15.07;;;5.75;;
64653;SDS011;51065;48.884;12.598;2022-09-14T05:53:39;14.43;;;6.18;;
64653;SDS011;51065;48.884;12.598;2022-09-14T05:56:07;13.77;;;5.88;;
64653;SDS011;51065;48.884;12.598;2022-09-14T05:58:34;12.68;;;5.38;;
64653;SDS011;51065;48.884;12.598;2022-09-14T06:03:43;11.57;;;5.68;;
64653;SDS011;51065;48.884;12.598;2022-09-14T06:06:10;10.70;;;4.90;;
64653;SDS011;51065;48.884;12.598;2022-09-14T06:08:37;10.27;;;4.72;;
64653;SDS011;51065;48.884;12.598;2022-09-14T06:11:03;10.98;;;5.75;;
64653;SDS011;51065;48.884;12.598;2022-09-14T06:13:31;13.25;;;5.53;;
64653;SDS011;51065;48.884;12.598;2022-09-14T06:16:00;11.82;;;5.60;;
64653;SDS011;51065;48.884;12.598;2022-09-14T06:18:28;12.73;;;5.83;;
64653;SDS011;51065;48.884;12.598;2022-09-14T06:20:57;11.88;;;5.43;;
64653;SDS011;51065;48.884;12.598;2022-09-14T06:23:23;12.65;;;5.97;;
64653;SDS011;51065;48.884;12.598;2022-09-14T06:25:51;11.65;;;5.70;;
64653;SDS011;51065;48.884;12.598;2022-09-14T06:28:18;12.45;;;5.80;;
64653;SDS011;51065;48.884;12.598;2022-09-14T06:30:44;13.68;;;5.93;;
64653;SDS011;51065;48.884;12.598;2022-09-14T06:33:09;17.23;;;6.40;;
64653;SDS011;51065;48.884;12.598;2022-09-14T06:35:35;12.88;;;5.88;;
64653;SDS011;51065;48.884;12.598;2022-09-14T06:38:01;11.45;;;5.50;;
64653;SDS011;51065;48.884;12.598;2022-09-14T06:40:26;12.40;;;5.55;;
64653;SDS011;51065;48.884;12.598;2022-09-14T06:42:52;12.75;;;5.93;;
64653;SDS011;51065;48.884;12.598;2022-09-14T06:45:17;10.27;;;5.72;;
64653;SDS011;51065;48.884;12.598;2022-09-14T06:47:43;11.05;;;5.63;;
64653;SDS011;51065;48.884;12.598;2022-09-14T06:50:09;10.77;;;5.43;;
64653;SDS011;51065;48.884;12.598;2022-09-14T06:52:35;11.43;;;5.53;;
64653;SDS011;51065;48.884;12.598;2022-09-14T06:55:01;10.93;;;4.90;;
64653;SDS011;51065;48.884;12.598;2022-09-14T06:57:26;10.70;;;4.85;;
64653;SDS011;51065;48.884;12.598;2022-09-14T06:59:52;12.00;;;5.72;;
64653;SDS011;51065;48.884;12.598;2022-09-14T07:02:18;10.95;;;5.30;;
64653;SDS011;51065;48.884;12.598;2022-09-14T07:04:44;11.18;;;5.22;;
64653;SDS011;51065;48.884;12.598;2022-09-14T07:07:09;12.23;;;5.47;;
64653;SDS011;51065;48.884;12.598;2022-09-14T07:09:35;13.27;;;5.68;;
64653;SDS011;51065;48.884;12.598;2022-09-14T07:12:01;11.70;;;5.80;;
64653;SDS011;51065;48.884;12.598;2022-09-14T07:14:26;11.30;;;5.28;;
64653;SDS011;51065;48.884;12.598;2022-09-14T07:16:52;13.00;;;5.75;;
64653;SDS011;51065;48.884;12.598;2022-09-14T07:19:17;13.10;;;5.65;;
64653;SDS011;51065;48.884;12.598;2022-09-14T07:21:43;15.43;;;5.60;;
64653;SDS011;51065;48.884;12.598;2022-09-14T07:24:10;13.63;;;5.25;;
64653;SDS011;51065;48.884;12.598;2022-09-14T07:26:37;11.00;;;5.70;;
64653;SDS011;51065;48.884;12.598;2022-09-14T07:29:04;12.35;;;5.00;;
64653;SDS011;51065;48.884;12.598;2022-09-14T07:31:33;11.30;;;4.80;;
64653;SDS011;51065;48.884;12.598;2022-09-14T07:34:01;10.90;;;5.47;;
64653;SDS011;51065;48.884;12.598;2022-09-14T07:36:28;11.40;;;5.22;;
64653;SDS011;51065;48.884;12.598;2022-09-14T07:38:55;12.48;;;5.20;;
64653;SDS011;51065;48.884;12.598;2022-09-14T07:41:22;12.48;;;5.57;;
64653;SDS011;51065;48.884;12.598;2022-09-14T07:43:50;14.80;;;6.32;;
64653;SDS011;51065;48.884;12.598;2022-09-14T07:46:16;15.25;;;6.28;;
64653;SDS011;51065;48.884;12.598;2022-09-14T07:48:43;13.85;;;6.15;;
64653;SDS011;51065;48.884;12.598;2022-09-14T07:51:09;13.15;;;5.70;;
64653;SDS011;51065;48.884;12.598;2022-09-14T07:53:39;11.57;;;5.20;;
64653;SDS011;51065;48.884;12.598;2022-09-14T07:56:07;11.02;;;5.20;;
64653;SDS011;51065;48.884;12.598;2022-09-14T07:58:33;9.25;;;4.63;;
64653;SDS011;51065;48.884;12.598;2022-09-14T08:01:00;8.55;;;4.50;;
64653;SDS011;51065;48.884;12.598;2022-09-14T08:03:28;10.50;;;5.10;;
64653;SDS011;51065;48.884;12.598;2022-09-14T08:06:02;10.02;;;4.60;;
64653;SDS011;51065;48.884;12.598;2022-09-14T08:08:30;10.60;;;4.97;;
64653;SDS011;51065;48.884;12.598;2022-09-14T08:11:16;10.07;;;4.70;;
64653;SDS011;51065;48.884;12.598;2022-09-14T08:13:45;8.82;;;4.38;;
64653;SDS011;51065;48.884;12.598;2022-09-14T08:16:13;10.93;;;5.05;;
64653;SDS011;51065;48.884;12.598;2022-09-14T08:18:39;14.40;;;5.30;;
64653;SDS011;51065;48.884;12.598;2022-09-14T08:21:06;11.25;;;5.63;;
64653;SDS011;51065;48.884;12.598;2022-09-14T08:23:34;13.52;;;5.43;;
64653;SDS011;51065;48.884;12.598;2022-09-14T08:26:04;11.25;;;5.10;;
64653;SDS011;51065;48.884;12.598;2022-09-14T08:28:32;14.52;;;5.50;;
64653;SDS011;51065;48.884;12.598;2022-09-14T08:31:05;13.63;;;5.97;;
64653;SDS011;51065;48.884;12.598;2022-09-14T08:33:42;11.45;;;5.38;;
64653;SDS011;51065;48.884;12.598;2022-09-14T08:36:09;13.73;;;5.95;;
64653;SDS011;51065;48.884;12.598;2022-09-14T08:38:36;13.02;;;6.20;;
64653;SDS011;51065;48.884;12.598;2022-09-14T08:43:45;13.65;;;6.32;;
64653;SDS011;51065;48.884;12.598;2022-09-14T08:46:46;14.05;;;5.95;;
64653;SDS011;51065;48.884;12.598;2022-09-14T08:52:06;13.30;;;6.65;;
64653;SDS011;51065;48.884;12.598;2022-09-14T08:54:43;11.02;;;5.63;;
64653;SDS011;51065;48.884;12.598;2022-09-14T08:57:18;11.50;;;5.80;;
64653;SDS011;51065;48.884;12.598;2022-09-14T08:59:55;13.85;;;5.85;;
64653;SDS011;51065;48.884;12.598;2022-09-14T09:02:27;15.38;;;6.20;;
64653;SDS011;51065;48.884;12.598;2022-09-14T09:05:19;13.43;;;6.03;;
64653;SDS011;51065;48.884;12.598;2022-09-14T09:08:03;12.80;;;5.82;;
64653;SDS011;51065;48.884;12.598;2022-09-14T09:10:42;12.43;;;6.13;;
64653;SDS011;51065;48.884;12.598;2022-09-14T09:13:16;12.57;;;5.78;;
64653;SDS011;51065;48.884;12.598;2022-09-14T09:15:49;11.13;;;5.32;;
64653;SDS011;51065;48.884;12.598;2022-09-14T09:18:21;13.73;;;6.00;;
64653;SDS011;51065;48.884;12.598;2022-09-14T09:20:51;11.30;;;5.57;;
64653;SDS011;51065;48.884;12.598;2022-09-14T09:23:23;11.93;;;5.95;;
64653;SDS011;51065;48.884;12.598;2022-09-14T09:28:31;13.63;;;6.15;;
64653;SDS011;51065;48.884;12.598;2022-09-14T09:30:59;14.52;;;6.75;;
64653;SDS011;51065;48.884;12.598;2022-09-14T09:33:29;10.88;;;5.80;;
64653;SDS011;51065;48.884;12.598;2022-09-14T09:35:54;13.18;;;7.13;;
64653;SDS011;51065;48.884;12.598;2022-09-14T09:38:22;12.57;;;6.47;;
64653;SDS011;51065;48.884;12.598;2022-09-14T09:40:57;11.27;;;5.72;;
64653;SDS011;51065;48.884;12.598;2022-09-14T09:43:29;12.32;;;5.90;;
64653;SDS011;51065;48.884;12.598;2022-09-14T09:46:04;13.13;;;5.50;;
64653;SDS011;51065;48.884;12.598;2022-09-14T09:53:52;10.98;;;6.05;;
64653;SDS011;51065;48.884;12.598;2022-09-14T09:56:36;9.18;;;4.28;;
64653;SDS011;51065;48.884;12.598;2022-09-14T10:02:27;9.73;;;5.53;;
64653;SDS011;51065;48.884;12.598;2022-09-14T10:07:29;12.50;;;5.68;;
64653;SDS011;51065;48.884;12.598;2022-09-14T10:12:31;10.52;;;5.28;;
64653;SDS011;51065;48.884;12.598;2022-09-14T10:15:12;10.50;;;5.30;;
64653;SDS011;51065;48.884;12.598;2022-09-14T10:18:19;9.30;;;4.50;;
64653;SDS011;51065;48.884;12.598;2022-09-14T10:21:23;9.45;;;4.82;;
64653;SDS011;51065;48.884;12.598;2022-09-14T10:23:24;12.88;;;5.13;;
64653;SDS011;51065;48.884;12.598;2022-09-14T10:26:16;10.52;;;5.30;;
64653;SDS011;51065;48.884;12.598;2022-09-14T10:28:42;9.65;;;5.28;;
64653;SDS011;51065;48.884;12.598;2022-09-14T10:33:48;7.82;;;5.38;;
64653;SDS011;51065;48.884;12.598;2022-09-14T10:36:23;10.35;;;5.75;;
64653;SDS011;51065;48.884;12.598;2022-09-14T10:38:56;12.88;;;5.90;;
64653;SDS011;51065;48.884;12.598;2022-09-14T10:41:27;11.20;;;5.60;;
64653;SDS011;51065;48.884;12.598;2022-09-14T10:47:34;9.90;;;5.28;;
64653;SDS011;51065;48.884;12.598;2022-09-14T10:58:47;11.05;;;5.82;;
64653;SDS011;51065;48.884;12.598;2022-09-14T11:06:58;11.32;;;6.32;;
64653;SDS011;51065;48.884;12.598;2022-09-14T11:09:52;14.10;;;6.70;;
64653;SDS011;51065;48.884;12.598;2022-09-14T11:15:49;11.40;;;6.38;;
64653;SDS011;51065;48.884;12.598;2022-09-14T11:23:55;14.38;;;6.95;;
64653;SDS011;51065;48.884;12.598;2022-09-14T11:26:31;10.52;;;5.93;;
64653;SDS011;51065;48.884;12.598;2022-09-14T11:31:40;10.48;;;5.93;;
64653;SDS011;51065;48.884;12.598;2022-09-14T11:34:22;11.98;;;5.95;;
64653;SDS011;51065;48.884;12.598;2022-09-14T11:36:55;10.65;;;5.07;;
64653;SDS011;51065;48.884;12.598;2022-09-14T11:39:47;8.70;;;4.40;;
64653;SDS011;51065;48.884;12.598;2022-09-14T11:42:24;8.60;;;3.50;;
64653;SDS011;51065;48.884;12.598;2022-09-14T11:45:01;8.43;;;3.90;;
64653;SDS011;51065;48.884;12.598;2022-09-14T11:47:34;9.73;;;4.18;;
64653;SDS011;51065;48.884;12.598;2022-09-14T11:52:46;8.20;;;3.97;;
64653;SDS011;51065;48.884;12.598;2022-09-14T11:55:19;8.68;;;3.40;;
64653;SDS011;51065;48.884;12.598;2022-09-14T11:57:45;11.82;;;3.50;;
64653;SDS011;51065;48.884;12.598;2022-09-14T12:02:59;9.45;;;3.50;;
64653;SDS011;51065;48.884;12.598;2022-09-14T12:05:45;10.15;;;3.47;;
64653;SDS011;51065;48.884;12.598;2022-09-14T12:08:27;11.63;;;3.17;;
64653;SDS011;51065;48.884;12.598;2022-09-14T12:11:38;4.97;;;2.78;;
64653;SDS011;51065;48.884;12.598;2022-09-14T12:13:57;5.60;;;2.60;;
64653;SDS011;51065;48.884;12.598;2022-09-14T12:17:03;7.30;;;2.60;;
64653;SDS011;51065;48.884;12.598;2022-09-14T13:04:33;4.25;;;2.17;;
64653;SDS011;51065;48.884;12.598;2022-09-14T13:07:03;4.75;;;1.90;;
64653;SDS011;51065;48.884;12.598;2022-09-14T13:09:31;2.45;;;1.75;;
64653;SDS011;51065;48.884;12.598;2022-09-14T13:12:01;4.07;;;2.30;;
64653;SDS011;51065;48.884;12.598;2022-09-14T13:14:29;4.03;;;1.95;;
64653;SDS011;51065;48.884;12.598;2022-09-14T13:17:09;5.65;;;2.15;;
64653;SDS011;51065;48.884;12.598;2022-09-14T13:19:38;5.63;;;1.85;;
64653;SDS011;51065;48.884;12.598;2022-09-14T13:22:15;5.82;;;1.98;;
64653;SDS011;51065;48.884;12.598;2022-09-14T13:24:46;6.57;;;2.25;;
64653;SDS011;51065;48.884;12.598;2022-09-14T13:27:46;7.38;;;2.17;;
64653;SDS011;51065;48.884;12.598;2022-09-14T13:30:07;4.13;;;2.10;;
64653;SDS011;51065;48.884;12.598;2022-09-14T13:32:48;8.98;;;2.50;;
64653;SDS011;51065;48.884;12.598;2022-09-14T13:35:16;8.20;;;2.50;;
64653;SDS011;51065;48.884;12.598;2022-09-14T13:37:44;6.70;;;2.40;;
64653;SDS011;51065;48.884;12.598;2022-09-14T13:40:10;5.28;;;1.88;;
64653;SDS011;51065;48.884;12.598;2022-09-14T13:42:36;7.63;;;2.72;;
64653;SDS011;51065;48.884;12.598;2022-09-14T13:45:03;7.05;;;1.92;;
64653;SDS011;51065;48.884;12.598;2022-09-14T13:47:29;2.75;;;2.00;;
64653;SDS011;51065;48.884;12.598;2022-09-14T13:49:55;6.10;;;2.35;;
64653;SDS011;51065;48.884;12.598;2022-09-14T13:57:33;7.07;;;2.42;;
64653;SDS011;51065;48.884;12.598;2022-09-14T14:00:20;4.55;;;2.00;;
64653;SDS011;51065;48.884;12.598;2022-09-14T14:02:50;5.18;;;2.17;;
64653;SDS011;51065;48.884;12.598;2022-09-14T14:05:18;5.38;;;2.20;;
64653;SDS011;51065;48.884;12.598;2022-09-14T14:07:52;10.38;;;2.70;;
64653;SDS011;51065;48.884;12.598;2022-09-14T14:10:21;5.03;;;2.28;;
64653;SDS011;51065;48.884;12.598;2022-09-14T14:12:50;6.60;;;2.40;;
64653;SDS011;51065;48.884;12.598;2022-09-14T14:17:42;3.63;;;2.10;;
64653;SDS011;51065;48.884;12.598;2022-09-14T14:25:37;5.43;;;2.10;;
64653;SDS011;51065;48.884;12.598;2022-09-14T14:28:13;5.20;;;2.25;;
64653;SDS011;51065;48.884;12.598;2022-09-14T14:30:53;5.05;;;2.33;;
64653;SDS011;51065;48.884;12.598;2022-09-14T14:33:21;9.30;;;2.15;;
64653;SDS011;51065;48.884;12.598;2022-09-14T14:35:47;5.75;;;2.10;;
64653;SDS011;51065;48.884;12.598;2022-09-14T14:38:15;4.75;;;2.13;;
64653;SDS011;51065;48.884;12.598;2022-09-14T14:40:42;5.57;;;1.92;;
64653;SDS011;51065;48.884;12.598;2022-09-14T14:43:10;4.63;;;1.83;;
64653;SDS011;51065;48.884;12.598;2022-09-14T14:45:44;2.17;;;1.75;;
64653;SDS011;51065;48.884;12.598;2022-09-14T14:48:10;4.50;;;1.80;;
64653;SDS011;51065;48.884;12.598;2022-09-14T14:50:36;6.07;;;2.20;;
64653;SDS011;51065;48.884;12.598;2022-09-14T14:53:02;4.47;;;2.03;;
64653;SDS011;51065;48.884;12.598;2022-09-14T14:55:29;4.85;;;2.10;;
64653;SDS011;51065;48.884;12.598;2022-09-14T14:57:59;4.10;;;2.40;;
64653;SDS011;51065;48.884;12.598;2022-09-14T15:00:27;8.05;;;2.30;;
64653;SDS011;51065;48.884;12.598;2022-09-14T15:02:55;3.00;;;1.90;;
64653;SDS011;51065;48.884;12.598;2022-09-14T15:05:21;6.50;;;1.90;;
64653;SDS011;51065;48.884;12.598;2022-09-14T15:07:47;4.88;;;2.05;;
64653;SDS011;51065;48.884;12.598;2022-09-14T15:10:16;4.50;;;2.38;;
64653;SDS011;51065;48.884;12.598;2022-09-14T15:12:42;6.50;;;2.42;;
64653;SDS011;51065;48.884;12.598;2022-09-14T15:15:10;2.97;;;1.98;;
64653;SDS011;51065;48.884;12.598;2022-09-14T15:17:40;6.22;;;2.42;;
64653;SDS011;51065;48.884;12.598;2022-09-14T15:20:07;5.45;;;2.50;;
64653;SDS011;51065;48.884;12.598;2022-09-14T15:22:33;4.93;;;2.20;;
64653;SDS011;51065;48.884;12.598;2022-09-14T15:25:00;5.25;;;2.50;;
64653;SDS011;51065;48.884;12.598;2022-09-14T15:27:26;4.70;;;2.22;;
64653;SDS011;51065;48.884;12.598;2022-09-14T15:29:52;4.82;;;2.13;;
64653;SDS011;51065;48.884;12.598;2022-09-14T15:32:17;5.68;;;2.50;;
64653;SDS011;51065;48.884;12.598;2022-09-14T15:34:43;4.00;;;2.35;;
64653;SDS011;51065;48.884;12.598;2022-09-14T15:37:09;6.35;;;2.60;;
64653;SDS011;51065;48.884;12.598;2022-09-14T15:39:34;4.68;;;2.42;;
64653;SDS011;51065;48.884;12.598;2022-09-14T15:42:00;5.22;;;2.45;;
64653;SDS011;51065;48.884;12.598;2022-09-14T15:44:27;6.53;;;2.55;;
64653;SDS011;51065;48.884;12.598;2022-09-14T15:46:54;6.32;;;2.72;;
64653;SDS011;51065;48.884;12.598;2022-09-14T15:49:21;3.97;;;2.45;;
64653;SDS011;51065;48.884;12.598;2022-09-14T15:51:48;6.05;;;2.63;;
64653;SDS011;51065;48.884;12.598;2022-09-14T15:54:16;7.55;;;2.58;;
64653;SDS011;51065;48.884;12.598;2022-09-14T15:56:46;8.75;;;3.03;;
64653;SDS011;51065;48.884;12.598;2022-09-14T15:59:13;5.38;;;2.75;;
64653;SDS011;51065;48.884;12.598;2022-09-14T16:01:39;5.70;;;2.63;;
64653;SDS011;51065;48.884;12.598;2022-09-14T16:04:05;7.82;;;2.97;;
64653;SDS011;51065;48.884;12.598;2022-09-14T16:06:32;7.65;;;2.90;;
64653;SDS011;51065;48.884;12.598;2022-09-14T16:09:02;7.47;;;3.30;;
64653;SDS011;51065;48.884;12.598;2022-09-14T16:11:29;10.27;;;3.50;;
64653;SDS011;51065;48.884;12.598;2022-09-14T16:13:55;8.13;;;3.70;;
64653;SDS011;51065;48.884;12.598;2022-09-14T16:16:21;8.10;;;3.80;;
64653;SDS011;51065;48.884;12.598;2022-09-14T16:18:47;8.55;;;3.25;;
64653;SDS011;51065;48.884;12.598;2022-09-14T16:21:17;7.78;;;3.67;;
64653;SDS011;51065;48.884;12.598;2022-09-14T16:23:46;9.30;;;3.60;;
64653;SDS011;51065;48.884;12.598;2022-09-14T16:26:14;6.75;;;3.40;;
64653;SDS011;51065;48.884;12.598;2022-09-14T16:28:42;6.43;;;3.40;;
64653;SDS011;51065;48.884;12.598;2022-09-14T16:31:10;8.88;;;3.50;;
64653;SDS011;51065;48.884;12.598;2022-09-14T16:33:41;8.63;;;3.22;;
64653;SDS011;51065;48.884;12.598;2022-09-14T16:36:10;7.75;;;3.47;;
64653;SDS011;51065;48.884;12.598;2022-09-14T16:38:40;6.90;;;3.38;;
64653;SDS011;51065;48.884;12.598;2022-09-14T16:41:08;8.38;;;3.47;;
64653;SDS011;51065;48.884;12.598;2022-09-14T16:43:34;9.88;;;3.50;;
64653;SDS011;51065;48.884;12.598;2022-09-14T16:48:32;7.00;;;3.33;;
64653;SDS011;51065;48.884;12.598;2022-09-14T16:50:59;8.82;;;3.70;;
64653;SDS011;51065;48.884;12.598;2022-09-14T16:53:28;7.30;;;3.50;;
64653;SDS011;51065;48.884;12.598;2022-09-14T16:55:59;9.60;;;3.97;;
64653;SDS011;51065;48.884;12.598;2022-09-14T16:58:32;11.25;;;3.50;;
64653;SDS011;51065;48.884;12.598;2022-09-14T17:01:05;16.20;;;3.55;;
64653;SDS011;51065;48.884;12.598;2022-09-14T17:03:36;5.93;;;1.90;;
64653;SDS011;51065;48.884;12.598;2022-09-14T17:06:02;3.80;;;0.98;;
64653;SDS011;51065;48.884;12.598;2022-09-14T17:08:30;1.83;;;0.80;;
64653;SDS011;51065;48.884;12.598;2022-09-14T17:10:56;3.08;;;0.90;;
64653;SDS011;51065;48.884;12.598;2022-09-14T17:13:22;0.70;;;0.50;;